Time;durP1;ratioP1;P1;durP2;ratioP2;P2;SDS_P1;SDS_P2;PMS_P1;PMS_P2;Temp;Humidity;BMP_temperature;BMP_pressure;BME280_temperature;BME280_humidity;BME280_pressure;Samples;Min_cycle;Max_cycle;Signal;HPM_P1;HPM_P2
2023/07/24 00:00:00;;;;;;;11.82;9.45;;;17.60;99.90;;;;;;5046263;28;20041;-67
2023/07/24 00:02:26;;;;;;;11.65;9.40;;;17.50;99.90;;;;;;5015796;28;20069;-65
2023/07/24 00:04:52;;;;;;;11.65;9.80;;;17.50;99.90;;;;;;5015935;28;20045;-64
2023/07/24 00:07:18;;;;;;;13.40;10.18;;;17.60;99.90;;;;;;5015153;28;20049;-65
2023/07/24 00:09:45;;;;;;;11.85;9.70;;;17.60;99.90;;;;;;5026015;28;20470;-65
2023/07/24 00:12:11;;;;;;;11.23;9.38;;;17.60;99.90;;;;;;5053173;28;20045;-65
2023/07/24 00:14:37;;;;;;;12.57;10.18;;;17.60;99.90;;;;;;5019173;28;20094;-65
2023/07/24 00:17:04;;;;;;;11.63;9.52;;;17.50;99.90;;;;;;5034981;28;20056;-64
2023/07/24 00:19:31;;;;;;;11.30;9.05;;;17.50;99.90;;;;;;5034351;28;20049;-65
2023/07/24 00:21:57;;;;;;;11.32;9.45;;;17.60;99.90;;;;;;5035184;28;20230;-64
2023/07/24 00:24:23;;;;;;;11.30;9.32;;;17.60;99.90;;;;;;5035165;28;20497;-65
2023/07/24 00:26:50;;;;;;;10.65;8.88;;;17.60;99.90;;;;;;5018092;28;20045;-65
2023/07/24 00:29:16;;;;;;;10.13;8.63;;;17.60;99.90;;;;;;5034831;28;20053;-65
2023/07/24 00:31:42;;;;;;;10.15;7.88;;;17.50;99.90;;;;;;5018261;28;20298;-65
2023/07/24 00:34:10;;;;;;;11.88;8.35;;;17.40;99.90;;;;;;5034995;28;20049;-64
2023/07/24 00:36:37;;;;;;;10.75;7.85;;;17.50;99.90;;;;;;5037808;28;20105;-65
2023/07/24 00:39:03;;;;;;;12.02;7.82;;;17.40;99.90;;;;;;5014482;28;20112;-65
2023/07/24 00:41:29;;;;;;;10.70;8.75;;;17.40;99.90;;;;;;5015073;28;20048;-64
2023/07/24 00:43:56;;;;;;;9.85;7.78;;;17.40;99.90;;;;;;5014887;28;20127;-65
2023/07/24 00:46:23;;;;;;;10.80;8.13;;;17.40;99.90;;;;;;5014582;28;20045;-64
2023/07/24 00:48:50;;;;;;;8.45;7.20;;;17.40;99.90;;;;;;5014628;28;20050;-67
2023/07/24 00:51:16;;;;;;;11.10;7.57;;;17.40;99.90;;;;;;5014786;28;20045;-65
2023/07/24 00:53:43;;;;;;;9.18;8.05;;;17.20;99.90;;;;;;5014562;28;20053;-64
2023/07/24 00:56:11;;;;;;;10.73;7.10;;;17.20;99.90;;;;;;5014489;28;20076;-66
2023/07/24 00:58:38;;;;;;;11.00;7.47;;;17.20;99.90;;;;;;5032110;28;20057;-64
2023/07/24 01:01:04;;;;;;;9.82;7.68;;;17.30;99.90;;;;;;5012460;28;20046;-65
2023/07/24 01:03:35;;;;;;;9.75;8.30;;;17.20;99.90;;;;;;5012368;28;20045;-64
2023/07/24 01:06:02;;;;;;;8.25;7.25;;;17.20;99.90;;;;;;4995290;28;20042;-66
2023/07/24 01:08:28;;;;;;;9.85;7.80;;;17.10;99.90;;;;;;4978716;28;20057;-64
2023/07/24 01:11:02;;;;;;;8.63;7.13;;;17.20;99.90;;;;;;5014327;28;20057;-66
2023/07/24 01:13:36;;;;;;;9.38;7.15;;;17.20;99.90;;;;;;5014612;28;20053;-65
2023/07/24 01:16:12;;;;;;;8.93;7.90;;;17.20;99.90;;;;;;5014528;28;20439;-66
2023/07/24 01:18:40;;;;;;;10.75;7.93;;;17.10;99.90;;;;;;4997927;28;20054;-64
2023/07/24 01:21:11;;;;;;;8.32;7.25;;;17.10;99.90;;;;;;4994884;28;20042;-64
2023/07/24 01:24:16;;;;;;;9.32;7.32;;;17.10;99.90;;;;;;4994631;28;20431;-64
2023/07/24 01:26:44;;;;;;;9.60;7.60;;;17.10;99.90;;;;;;4994502;28;20050;-64
2023/07/24 01:29:11;;;;;;;10.80;7.45;;;17.00;99.90;;;;;;5017023;28;20052;-64
2023/07/24 01:31:37;;;;;;;8.80;7.07;;;17.00;99.90;;;;;;5017167;28;20054;-64
2023/07/24 01:34:03;;;;;;;9.57;7.80;;;17.00;99.90;;;;;;5018726;28;20068;-64
2023/07/24 01:36:29;;;;;;;8.63;7.00;;;17.00;99.90;;;;;;5030429;28;20052;-66
2023/07/24 01:38:56;;;;;;;8.38;6.95;;;17.00;99.90;;;;;;5035338;28;20046;-64
2023/07/24 01:41:23;;;;;;;9.63;7.28;;;17.10;99.90;;;;;;5018300;28;20473;-64
2023/07/24 01:43:50;;;;;;;9.90;7.65;;;17.00;99.90;;;;;;5018436;28;20054;-66
2023/07/24 01:46:16;;;;;;;8.80;7.90;;;17.00;99.90;;;;;;5018112;28;20041;-65
2023/07/24 01:48:43;;;;;;;9.88;8.23;;;17.00;99.90;;;;;;5018790;28;20045;-66
2023/07/24 01:51:10;;;;;;;10.35;7.32;;;17.00;99.90;;;;;;5018268;28;20441;-66
2023/07/24 01:53:36;;;;;;;11.07;7.85;;;17.00;99.90;;;;;;5018142;28;20057;-64
2023/07/24 01:56:02;;;;;;;10.45;7.45;;;17.00;99.90;;;;;;5001796;28;20067;-64
2023/07/24 01:58:29;;;;;;;10.35;7.55;;;17.00;99.90;;;;;;5018090;28;20049;-64
2023/07/24 02:00:56;;;;;;;9.13;7.60;;;17.00;99.90;;;;;;5018035;28;20186;-66
2023/07/24 02:03:29;;;;;;;9.63;7.32;;;17.10;99.90;;;;;;5018205;28;20115;-66
2023/07/24 02:05:56;;;;;;;8.90;7.32;;;17.10;99.90;;;;;;5018036;28;20045;-65
2023/07/24 02:08:23;;;;;;;10.05;7.50;;;17.10;99.90;;;;;;5035759;28;20052;-65
2023/07/24 02:10:50;;;;;;;8.90;7.55;;;17.20;99.90;;;;;;5035449;28;20378;-64
2023/07/24 02:13:17;;;;;;;8.25;7.10;;;17.20;99.90;;;;;;5001327;28;20049;-64
2023/07/24 02:15:43;;;;;;;10.18;7.68;;;17.20;99.90;;;;;;5017906;28;20478;-64
2023/07/24 02:18:09;;;;;;;10.43;7.70;;;17.20;99.90;;;;;;5017029;28;20366;-67
2023/07/24 02:20:36;;;;;;;8.32;6.65;;;17.30;99.90;;;;;;5017870;28;20465;-64
2023/07/24 02:23:02;;;;;;;9.75;7.55;;;17.20;99.90;;;;;;5035291;28;20060;-64
2023/07/24 02:25:29;;;;;;;8.73;7.38;;;17.20;99.90;;;;;;5035011;28;20536;-64
2023/07/24 02:27:56;;;;;;;9.82;7.57;;;17.20;99.90;;;;;;5017306;28;20296;-65
2023/07/24 02:30:22;;;;;;;10.98;8.15;;;17.20;99.90;;;;;;5031372;28;20076;-64
2023/07/24 02:32:49;;;;;;;8.75;7.25;;;17.10;99.90;;;;;;5037125;28;20057;-64
2023/07/24 02:35:15;;;;;;;9.30;7.07;;;17.20;99.90;;;;;;5006407;28;20115;-64
2023/07/24 02:37:41;;;;;;;9.05;7.43;;;17.10;99.90;;;;;;5053562;28;20083;-66
2023/07/24 02:40:10;;;;;;;9.55;7.45;;;17.10;99.90;;;;;;5041510;28;20523;-65
2023/07/24 02:42:36;;;;;;;8.90;7.32;;;17.10;99.90;;;;;;5016914;28;20509;-65
2023/07/24 02:45:03;;;;;;;11.57;7.75;;;17.20;99.90;;;;;;5033515;28;20086;-64
2023/07/24 02:47:29;;;;;;;8.68;7.25;;;17.20;99.90;;;;;;5000498;28;20092;-64
2023/07/24 02:49:56;;;;;;;8.85;7.80;;;17.10;99.90;;;;;;5035428;28;20049;-65
2023/07/24 02:52:22;;;;;;;8.48;6.95;;;17.20;99.90;;;;;;5017320;28;20064;-65
2023/07/24 02:54:49;;;;;;;10.57;7.30;;;17.20;99.90;;;;;;5017257;28;20052;-64
2023/07/24 02:57:15;;;;;;;8.95;7.32;;;17.10;99.90;;;;;;5016796;28;20065;-64
2023/07/24 02:59:42;;;;;;;9.45;8.15;;;17.10;99.90;;;;;;5025275;28;20071;-64
2023/07/24 03:02:09;;;;;;;8.80;6.80;;;17.20;99.90;;;;;;5054270;28;20424;-64
2023/07/24 03:04:35;;;;;;;9.55;7.15;;;17.10;99.90;;;;;;5036809;28;20052;-66
2023/07/24 03:07:01;;;;;;;9.82;7.80;;;17.10;99.90;;;;;;5036388;28;20049;-64
2023/07/24 03:09:27;;;;;;;8.27;6.72;;;17.10;99.90;;;;;;5036363;28;20056;-64
2023/07/24 03:11:54;;;;;;;9.00;6.78;;;17.00;99.90;;;;;;5036490;28;20512;-64
2023/07/24 03:14:20;;;;;;;9.40;7.05;;;17.10;99.90;;;;;;5020384;28;20060;-65
2023/07/24 03:16:47;;;;;;;8.65;7.55;;;17.10;99.90;;;;;;5053909;28;20445;-64
2023/07/24 03:19:13;;;;;;;10.35;7.57;;;17.00;99.90;;;;;;5046766;28;20041;-65
2023/07/24 03:21:39;;;;;;;10.45;7.60;;;17.10;99.90;;;;;;5067148;28;20041;-64
2023/07/24 03:24:05;;;;;;;8.77;7.40;;;17.00;99.90;;;;;;5035798;28;20049;-64
2023/07/24 03:26:32;;;;;;;10.50;8.02;;;17.00;99.90;;;;;;5035512;28;20057;-66
2023/07/24 03:28:59;;;;;;;9.07;7.38;;;17.00;99.90;;;;;;5035443;28;20047;-65
2023/07/24 03:31:25;;;;;;;9.50;7.47;;;17.10;99.90;;;;;;5035572;28;20049;-64
2023/07/24 03:33:51;;;;;;;9.48;7.90;;;17.00;99.90;;;;;;5036080;28;20053;-64
2023/07/24 03:36:18;;;;;;;9.52;7.60;;;17.10;99.90;;;;;;5052607;28;20048;-64
2023/07/24 03:38:45;;;;;;;10.10;7.47;;;17.10;99.90;;;;;;5035490;28;20110;-66
2023/07/24 03:41:11;;;;;;;10.32;8.15;;;17.10;99.90;;;;;;5053377;28;20045;-64
2023/07/24 03:43:37;;;;;;;8.88;7.43;;;17.00;99.90;;;;;;5035681;28;20049;-65
2023/07/24 03:46:04;;;;;;;11.43;8.25;;;17.00;99.90;;;;;;5035741;28;20053;-64
2023/07/24 03:48:30;;;;;;;10.55;7.68;;;17.10;99.90;;;;;;5035757;28;20416;-64
2023/07/24 03:51:00;;;;;;;10.60;8.38;;;17.10;99.90;;;;;;5035356;28;20056;-65
2023/07/24 03:53:27;;;;;;;10.77;7.97;;;17.10;99.90;;;;;;5034573;28;20060;-64
2023/07/24 03:55:54;;;;;;;9.90;7.80;;;17.10;99.90;;;;;;5053184;28;20072;-64
2023/07/24 03:58:21;;;;;;;11.40;8.68;;;17.00;99.90;;;;;;5035681;28;20365;-64
2023/07/24 04:00:48;;;;;;;11.93;8.32;;;17.10;99.90;;;;;;5035014;28;20045;-64
2023/07/24 04:03:15;;;;;;;10.25;7.97;;;17.10;99.90;;;;;;5053388;28;20068;-64
2023/07/24 04:05:42;;;;;;;10.30;7.95;;;17.20;99.90;;;;;;5053084;28;20059;-64
2023/07/24 04:08:08;;;;;;;10.38;8.15;;;17.00;99.90;;;;;;5052907;28;20072;-64
2023/07/24 04:10:34;;;;;;;11.45;8.15;;;17.10;99.90;;;;;;5018914;28;20126;-66
2023/07/24 04:13:00;;;;;;;10.25;8.35;;;17.10;99.90;;;;;;5035225;28;20052;-64
2023/07/24 04:15:26;;;;;;;9.05;7.63;;;17.00;99.90;;;;;;5035602;28;20053;-65
2023/07/24 04:17:53;;;;;;;9.43;8.23;;;17.10;99.90;;;;;;5018766;28;20127;-64
2023/07/24 04:20:19;;;;;;;12.23;9.13;;;17.10;99.90;;;;;;5051866;28;20382;-64
2023/07/24 04:22:45;;;;;;;11.98;9.13;;;17.00;99.90;;;;;;5053158;28;20469;-65
2023/07/24 04:25:11;;;;;;;10.18;8.90;;;17.00;99.90;;;;;;5035063;28;20469;-64
2023/07/24 04:27:38;;;;;;;11.82;8.88;;;17.00;99.90;;;;;;5052421;28;20041;-64
2023/07/24 04:30:04;;;;;;;10.23;8.48;;;17.00;99.90;;;;;;5051974;28;20111;-64
2023/07/24 04:32:31;;;;;;;9.90;8.65;;;17.00;99.90;;;;;;5029529;28;20116;-64
2023/07/24 04:34:57;;;;;;;10.75;8.75;;;16.90;99.90;;;;;;5034361;28;20061;-65
2023/07/24 04:37:24;;;;;;;11.65;9.35;;;17.00;99.90;;;;;;5017713;28;20068;-65
2023/07/24 04:39:50;;;;;;;12.68;8.93;;;17.00;99.90;;;;;;5034260;28;20045;-67
2023/07/24 04:42:16;;;;;;;10.95;8.75;;;17.00;99.90;;;;;;5053015;28;20053;-66
2023/07/24 04:44:43;;;;;;;11.95;9.45;;;17.00;99.90;;;;;;5035590;28;20047;-64
2023/07/24 04:47:16;;;;;;;12.13;8.90;;;17.00;99.90;;;;;;5034064;28;20052;-64
2023/07/24 04:49:42;;;;;;;11.23;9.18;;;16.90;99.90;;;;;;5050892;28;20056;-66
2023/07/24 04:52:08;;;;;;;11.10;8.45;;;17.00;99.90;;;;;;5052213;28;20095;-65
2023/07/24 04:54:35;;;;;;;10.60;9.00;;;16.90;99.90;;;;;;5034765;28;20049;-64
2023/07/24 04:57:01;;;;;;;10.65;8.80;;;17.00;99.90;;;;;;5033954;28;20078;-64
2023/07/24 04:59:27;;;;;;;10.20;8.45;;;17.00;99.90;;;;;;5034229;28;20115;-65
2023/07/24 05:01:53;;;;;;;12.35;9.15;;;17.00;99.90;;;;;;5034677;28;20099;-64
2023/07/24 05:04:25;;;;;;;14.07;9.00;;;17.00;99.90;;;;;;5034819;28;20052;-65
2023/07/24 05:06:51;;;;;;;11.82;9.07;;;17.00;99.90;;;;;;5030258;28;20048;-65
2023/07/24 05:09:17;;;;;;;11.23;8.45;;;17.10;99.90;;;;;;5033204;28;20064;-67
2023/07/24 05:11:44;;;;;;;12.55;9.18;;;17.10;99.90;;;;;;5050060;28;20044;-64
2023/07/24 05:14:11;;;;;;;11.05;8.90;;;17.10;99.90;;;;;;5017916;28;20037;-66
2023/07/24 05:16:37;;;;;;;12.55;9.38;;;17.20;99.90;;;;;;5033053;28;20049;-66
2023/07/24 05:19:05;;;;;;;11.32;9.05;;;17.20;99.90;;;;;;5032588;28;20044;-66
2023/07/24 05:21:31;;;;;;;11.35;9.25;;;17.20;99.90;;;;;;5033070;28;20060;-64
2023/07/24 05:23:59;;;;;;;12.45;9.15;;;17.30;99.90;;;;;;5033560;28;20048;-66
2023/07/24 05:26:25;;;;;;;15.82;9.55;;;17.30;99.90;;;;;;5050930;28;20382;-66
2023/07/24 05:28:52;;;;;;;9.70;8.30;;;17.30;99.90;;;;;;5034706;28;20434;-65
2023/07/24 05:31:29;;;;;;;10.98;9.40;;;17.30;99.90;;;;;;5017948;28;20059;-64
2023/07/24 05:33:55;;;;;;;12.18;9.32;;;17.40;99.90;;;;;;5034277;28;20053;-66
2023/07/24 05:36:21;;;;;;;11.57;8.18;;;17.50;99.90;;;;;;5033711;28;20053;-65
2023/07/24 05:38:52;;;;;;;11.70;8.73;;;17.50;99.90;;;;;;5034014;28;20114;-65
2023/07/24 05:41:18;;;;;;;10.45;8.68;;;17.40;99.90;;;;;;5038281;28;20037;-65
2023/07/24 05:43:44;;;;;;;11.93;9.05;;;17.50;99.90;;;;;;5039748;28;20056;-64
2023/07/24 05:46:11;;;;;;;11.77;8.88;;;17.50;99.90;;;;;;5035532;28;20041;-65
2023/07/24 05:48:37;;;;;;;13.75;9.30;;;17.50;99.90;;;;;;5031676;28;20056;-64
2023/07/24 05:51:03;;;;;;;10.02;8.18;;;17.60;99.90;;;;;;5030274;28;20059;-65
2023/07/24 05:53:30;;;;;;;11.82;8.45;;;17.60;99.90;;;;;;5013849;28;20053;-64
2023/07/24 05:55:59;;;;;;;10.63;8.05;;;17.90;99.90;;;;;;5012901;28;20111;-65
2023/07/24 05:58:25;;;;;;;11.02;8.60;;;18.10;99.90;;;;;;5013805;28;20063;-65
2023/07/24 06:00:51;;;;;;;10.10;8.32;;;18.30;99.90;;;;;;5011728;28;20075;-66
2023/07/24 06:03:33;;;;;;;10.10;7.97;;;18.60;99.90;;;;;;5031016;28;20080;-66
2023/07/24 06:05:59;;;;;;;11.88;8.32;;;18.70;99.90;;;;;;5012060;28;20125;-65
2023/07/24 06:08:25;;;;;;;10.27;8.32;;;18.80;99.90;;;;;;5031008;28;20115;-65
2023/07/24 06:10:51;;;;;;;10.93;8.05;;;18.90;99.90;;;;;;5011795;28;20049;-64
2023/07/24 06:13:24;;;;;;;10.82;8.57;;;18.80;99.90;;;;;;5013687;28;20371;-64
2023/07/24 06:15:59;;;;;;;10.82;7.70;;;19.00;99.90;;;;;;5029805;28;20429;-64
2023/07/24 06:18:25;;;;;;;11.20;8.60;;;19.30;99.90;;;;;;5000930;28;20103;-63
2023/07/24 06:20:53;;;;;;;10.15;8.05;;;19.30;99.90;;;;;;5031467;28;20077;-63
2023/07/24 06:23:19;;;;;;;12.18;8.32;;;19.20;99.90;;;;;;5034677;28;20041;-66
2023/07/24 06:25:46;;;;;;;11.27;8.38;;;19.50;99.90;;;;;;5000769;28;20044;-67
2023/07/24 06:28:12;;;;;;;11.07;7.68;;;19.60;99.90;;;;;;5034504;28;20049;-64
2023/07/24 06:30:39;;;;;;;11.38;7.72;;;19.50;99.90;;;;;;5032949;28;20335;-66
2023/07/24 06:33:05;;;;;;;10.55;7.68;;;19.50;99.90;;;;;;5034376;28;20045;-64
2023/07/24 06:35:32;;;;;;;10.93;8.32;;;19.50;99.90;;;;;;5043305;28;20041;-64
2023/07/24 06:38:10;;;;;;;10.38;7.25;;;19.40;99.90;;;;;;5074305;28;20045;-64
2023/07/24 06:40:36;;;;;;;10.75;7.60;;;19.30;99.90;;;;;;5070684;28;20094;-65
2023/07/24 06:43:04;;;;;;;11.30;7.97;;;19.30;99.90;;;;;;5074199;28;20445;-65
2023/07/24 06:45:30;;;;;;;11.23;6.97;;;19.20;99.90;;;;;;5056262;28;20573;-65
2023/07/24 06:47:58;;;;;;;10.35;7.40;;;19.30;99.90;;;;;;5039891;28;20083;-64
2023/07/24 06:50:24;;;;;;;11.23;7.50;;;19.30;99.90;;;;;;5055384;28;20056;-66
2023/07/24 06:52:51;;;;;;;13.20;7.32;;;19.30;99.90;;;;;;5055808;28;20059;-66
2023/07/24 06:55:18;;;;;;;11.85;7.57;;;19.30;99.90;;;;;;5053468;28;20048;-65
2023/07/24 06:57:44;;;;;;;9.15;6.88;;;19.20;99.90;;;;;;5072764;28;20453;-64
2023/07/24 07:00:11;;;;;;;13.48;7.72;;;19.20;99.90;;;;;;5065718;28;20056;-66
2023/07/24 07:02:38;;;;;;;13.18;7.05;;;19.30;99.90;;;;;;5053932;28;20056;-64
2023/07/24 07:05:06;;;;;;;10.35;6.43;;;19.30;99.90;;;;;;5061665;28;20050;-66
2023/07/24 07:07:36;;;;;;;9.82;6.68;;;19.40;99.90;;;;;;5056331;28;20057;-66
2023/07/24 07:10:02;;;;;;;10.80;6.75;;;19.50;99.90;;;;;;5073444;28;20122;-67
2023/07/24 07:12:29;;;;;;;11.10;7.10;;;19.50;99.90;;;;;;5074506;28;20048;-65
2023/07/24 07:14:58;;;;;;;10.85;6.47;;;19.80;99.90;;;;;;5074385;28;20052;-64
2023/07/24 07:17:26;;;;;;;9.98;7.53;;;20.00;99.90;;;;;;5073139;28;20350;-65
2023/07/24 07:19:53;;;;;;;10.95;7.32;;;20.00;99.90;;;;;;5065887;28;20472;-65
2023/07/24 07:22:19;;;;;;;10.15;6.72;;;20.10;99.90;;;;;;5053387;28;20044;-65
2023/07/24 07:24:46;;;;;;;11.40;6.43;;;20.20;99.90;;;;;;5036555;28;20056;-64
2023/07/24 07:27:17;;;;;;;10.32;6.90;;;20.10;99.90;;;;;;5019256;28;20473;-65
2023/07/24 07:29:44;;;;;;;9.95;7.40;;;20.00;99.90;;;;;;5019875;28;20048;-67
2023/07/24 07:32:10;;;;;;;10.70;7.47;;;20.00;99.90;;;;;;5039018;28;20048;-65
2023/07/24 07:34:38;;;;;;;13.93;7.55;;;19.90;99.90;;;;;;5055819;28;20060;-68
2023/07/24 07:37:05;;;;;;;11.05;7.47;;;19.80;99.90;;;;;;5073162;28;20052;-65
2023/07/24 07:39:32;;;;;;;11.93;7.70;;;19.70;99.90;;;;;;5069249;28;20049;-64
2023/07/24 07:41:59;;;;;;;10.93;7.03;;;19.60;99.90;;;;;;5053066;28;20045;-64
2023/07/24 07:44:25;;;;;;;10.90;7.07;;;19.60;99.90;;;;;;5035467;28;20048;-65
2023/07/24 07:46:51;;;;;;;12.45;7.57;;;19.70;99.90;;;;;;5053482;28;20045;-66
2023/07/24 07:49:17;;;;;;;14.05;8.05;;;19.70;99.90;;;;;;5055526;28;20825;-66
2023/07/24 07:51:43;;;;;;;11.02;7.53;;;19.70;99.90;;;;;;5055120;28;20522;-64
2023/07/24 07:54:10;;;;;;;10.63;7.35;;;19.50;99.90;;;;;;5073999;28;20115;-65
2023/07/24 07:56:36;;;;;;;11.82;7.65;;;19.50;99.90;;;;;;5055345;28;20469;-65
2023/07/24 07:59:02;;;;;;;11.48;8.05;;;19.50;99.90;;;;;;5035372;28;20057;-65
2023/07/24 08:01:28;;;;;;;11.45;7.50;;;19.60;99.90;;;;;;5054062;28;20060;-66
2023/07/24 08:03:55;;;;;;;13.38;7.90;;;19.70;99.90;;;;;;5053908;28;20044;-64
2023/07/24 08:06:21;;;;;;;13.25;8.27;;;19.80;99.90;;;;;;5039126;28;20056;-65
2023/07/24 08:08:47;;;;;;;12.10;8.13;;;19.90;99.90;;;;;;5054129;28;20045;-65
2023/07/24 08:11:14;;;;;;;13.15;8.02;;;20.00;99.90;;;;;;5054124;28;20416;-65
2023/07/24 08:13:40;;;;;;;12.40;7.68;;;20.10;99.90;;;;;;5072782;28;20048;-64
2023/07/24 08:16:18;;;;;;;12.30;8.25;;;20.20;99.90;;;;;;5072428;28;20578;-64
2023/07/24 08:18:48;;;;;;;11.90;8.57;;;20.00;99.90;;;;;;5072349;28;20555;-64
2023/07/24 08:21:15;;;;;;;12.60;7.78;;;20.10;99.90;;;;;;5035615;28;20428;-65
2023/07/24 08:23:42;;;;;;;12.05;7.95;;;20.00;99.90;;;;;;5069791;28;20044;-64
2023/07/24 08:26:08;;;;;;;13.27;8.60;;;20.10;99.90;;;;;;5071515;28;20441;-65
2023/07/24 08:28:35;;;;;;;13.23;8.35;;;20.10;99.90;;;;;;5038835;28;20057;-66
2023/07/24 08:31:02;;;;;;;14.18;7.85;;;20.00;99.90;;;;;;5037006;28;20109;-65
2023/07/24 08:33:29;;;;;;;12.55;7.95;;;20.00;99.90;;;;;;5054597;28;20182;-64
2023/07/24 08:36:06;;;;;;;15.57;8.73;;;19.90;99.90;;;;;;5050940;28;20064;-65
2023/07/24 08:38:36;;;;;;;14.13;9.25;;;20.00;99.90;;;;;;5051978;28;20063;-64
2023/07/24 08:41:10;;;;;;;10.88;8.23;;;20.10;99.90;;;;;;5034031;28;20050;-64
2023/07/24 08:43:37;;;;;;;11.98;8.23;;;20.00;99.90;;;;;;5032688;28;20042;-64
2023/07/24 08:46:05;;;;;;;17.10;8.50;;;20.10;99.90;;;;;;5032357;28;20102;-64
2023/07/24 08:48:38;;;;;;;11.75;7.85;;;20.10;99.90;;;;;;5031872;28;20052;-65
2023/07/24 08:51:09;;;;;;;13.85;8.10;;;20.10;99.90;;;;;;5046988;28;20049;-64
2023/07/24 08:53:38;;;;;;;12.70;7.88;;;20.20;99.90;;;;;;5050857;28;20052;-65
2023/07/24 08:56:10;;;;;;;12.68;8.05;;;20.30;99.90;;;;;;5050761;28;20059;-64
2023/07/24 08:58:37;;;;;;;10.50;7.72;;;20.30;99.90;;;;;;5034469;28;20049;-64
2023/07/24 09:01:03;;;;;;;11.38;7.30;;;20.60;99.90;;;;;;5034134;28;20136;-64
2023/07/24 09:03:33;;;;;;;13.30;7.70;;;20.70;99.90;;;;;;5014656;28;20049;-64
2023/07/24 09:06:08;;;;;;;14.10;8.07;;;20.70;99.90;;;;;;5048886;28;20040;-64
2023/07/24 09:08:37;;;;;;;10.15;7.63;;;20.80;99.90;;;;;;5050510;28;20052;-64
2023/07/24 09:11:05;;;;;;;11.38;6.90;;;20.90;99.90;;;;;;5034006;28;20049;-65
2023/07/24 09:13:31;;;;;;;10.82;7.32;;;21.00;99.90;;;;;;5030877;28;20061;-64
2023/07/24 09:16:01;;;;;;;13.63;6.95;;;21.00;99.90;;;;;;5014420;28;20053;-63
2023/07/24 09:18:39;;;;;;;10.10;6.78;;;21.10;99.90;;;;;;5030497;28;20054;-63
2023/07/24 09:21:05;;;;;;;9.80;6.35;;;21.30;99.90;;;;;;5046333;28;20045;-63
2023/07/24 09:23:32;;;;;;;9.90;7.05;;;21.60;99.90;;;;;;5050771;28;20424;-64
2023/07/24 09:25:58;;;;;;;9.70;7.00;;;21.80;99.90;;;;;;5050666;28;20049;-63
2023/07/24 09:28:24;;;;;;;10.73;7.68;;;22.40;99.90;;;;;;5050107;28;20045;-64
2023/07/24 09:30:53;;;;;;;11.55;6.70;;;22.50;99.90;;;;;;5036039;28;20107;-63
2023/07/24 09:33:19;;;;;;;9.15;5.82;;;22.50;99.90;;;;;;5030990;28;20136;-64
2023/07/24 09:35:57;;;;;;;9.60;5.80;;;22.40;99.90;;;;;;5030549;28;20057;-64
2023/07/24 09:38:23;;;;;;;11.15;6.18;;;22.40;99.90;;;;;;5030725;28;20052;-65
2023/07/24 09:40:53;;;;;;;10.85;6.82;;;22.40;99.90;;;;;;5044188;28;20053;-65
2023/07/24 09:43:27;;;;;;;11.82;6.75;;;22.30;99.90;;;;;;5034116;28;20045;-64
2023/07/24 09:45:55;;;;;;;8.73;6.38;;;22.20;99.90;;;;;;5050356;28;20056;-63
2023/07/24 09:48:26;;;;;;;8.50;6.40;;;22.60;99.90;;;;;;5050381;28;20509;-64
2023/07/24 09:50:56;;;;;;;9.25;5.88;;;22.70;99.90;;;;;;5049020;28;20468;-63
2023/07/24 09:53:44;;;;;;;11.27;6.82;;;23.00;99.90;;;;;;5054327;28;20048;-65
2023/07/24 09:56:11;;;;;;;9.55;6.40;;;23.10;99.90;;;;;;5054308;28;20044;-63
2023/07/24 09:58:39;;;;;;;10.05;6.85;;;23.00;99.90;;;;;;5054365;28;20053;-65
2023/07/24 10:01:07;;;;;;;8.95;6.18;;;22.80;99.90;;;;;;5038669;28;20049;-64
2023/07/24 10:03:55;;;;;;;9.82;6.47;;;22.60;99.90;;;;;;5034607;28;20049;-65
2023/07/24 10:06:22;;;;;;;9.30;6.05;;;22.60;99.90;;;;;;5034224;28;20072;-63
2023/07/24 10:08:49;;;;;;;11.07;6.30;;;22.50;99.90;;;;;;5017896;28;20096;-65
2023/07/24 10:11:15;;;;;;;7.85;5.80;;;22.50;99.90;;;;;;5032115;28;20053;-64
2023/07/24 10:13:42;;;;;;;9.77;6.25;;;22.30;99.90;;;;;;5034470;28;20061;-63
2023/07/24 10:16:09;;;;;;;8.48;5.60;;;22.30;99.90;;;;;;5034175;28;20108;-66
2023/07/24 10:18:43;;;;;;;9.25;5.63;;;22.40;99.90;;;;;;5034154;28;20076;-64
2023/07/24 10:21:10;;;;;;;10.18;5.63;;;22.50;99.90;;;;;;5032750;28;20370;-64
2023/07/24 10:23:41;;;;;;;14.35;6.00;;;22.50;99.90;;;;;;5053712;28;20044;-63
2023/07/24 10:26:08;;;;;;;8.18;6.07;;;22.60;99.90;;;;;;5053787;28;20068;-63
2023/07/24 10:28:39;;;;;;;8.48;5.85;;;22.60;99.90;;;;;;5053922;28;20045;-64
2023/07/24 10:31:10;;;;;;;8.57;6.40;;;22.60;99.90;;;;;;5037440;28;20049;-65
2023/07/24 10:33:44;;;;;;;8.77;5.85;;;22.70;99.90;;;;;;5034036;28;20114;-65
2023/07/24 10:36:13;;;;;;;7.70;6.50;;;22.70;99.90;;;;;;5042696;28;20544;-63
2023/07/24 10:38:41;;;;;;;9.75;6.10;;;22.60;99.90;;;;;;5053424;28;20424;-64
2023/07/24 10:41:10;;;;;;;9.27;6.00;;;22.60;99.90;;;;;;5036872;28;20053;-63
2023/07/24 10:43:45;;;;;;;9.10;5.93;;;22.60;99.90;;;;;;5033468;28;20045;-64
2023/07/24 10:46:12;;;;;;;10.02;6.50;;;22.60;99.90;;;;;;5033704;28;20378;-63
2023/07/24 10:48:52;;;;;;;10.27;6.43;;;22.50;99.90;;;;;;5033849;28;20046;-63
2023/07/24 10:51:18;;;;;;;11.00;6.70;;;22.40;99.90;;;;;;5051580;28;20466;-64
2023/07/24 10:53:47;;;;;;;9.13;6.47;;;22.20;99.90;;;;;;5053603;28;20726;-63
2023/07/24 10:56:15;;;;;;;12.98;6.50;;;22.10;99.90;;;;;;5053245;28;20362;-63
2023/07/24 10:58:43;;;;;;;10.30;6.07;;;22.10;99.90;;;;;;5050932;28;20356;-64
2023/07/24 11:01:11;;;;;;;8.27;5.90;;;22.20;99.90;;;;;;5036255;28;20414;-63
2023/07/24 11:03:41;;;;;;;9.65;6.72;;;22.30;99.90;;;;;;5033961;28;20490;-63
2023/07/24 11:06:21;;;;;;;10.80;6.63;;;22.50;99.90;;;;;;5053905;28;20056;-64
2023/07/24 11:08:58;;;;;;;7.78;6.20;;;22.60;99.90;;;;;;5052423;28;20048;-63
2023/07/24 11:11:35;;;;;;;9.48;6.28;;;22.50;99.90;;;;;;5049322;28;20510;-65
2023/07/24 11:14:14;;;;;;;8.88;6.03;;;22.50;99.90;;;;;;5051296;28;20461;-64
2023/07/24 11:16:49;;;;;;;10.57;5.88;;;22.50;99.90;;;;;;5033655;28;20630;-64
2023/07/24 11:19:27;;;;;;;9.93;6.07;;;22.60;99.90;;;;;;5050316;28;20059;-63
2023/07/24 11:21:58;;;;;;;10.10;5.90;;;23.00;99.90;;;;;;5050028;28;20049;-64
2023/07/24 11:24:24;;;;;;;9.30;5.78;;;23.20;99.90;;;;;;5053662;28;20115;-64
2023/07/24 11:26:54;;;;;;;7.95;5.60;;;23.30;99.90;;;;;;5052269;28;20049;-64
2023/07/24 11:29:23;;;;;;;11.35;6.22;;;23.20;99.90;;;;;;5051236;28;20362;-65
2023/07/24 11:31:56;;;;;;;8.90;6.00;;;23.30;99.90;;;;;;5036172;28;20049;-64
2023/07/24 11:34:24;;;;;;;9.95;6.05;;;23.10;99.90;;;;;;5017950;28;20052;-64
2023/07/24 11:36:50;;;;;;;15.25;6.25;;;23.00;99.90;;;;;;5035813;28;20057;-64
2023/07/24 11:39:23;;;;;;;10.88;6.47;;;23.00;99.90;;;;;;5052407;28;20059;-64
2023/07/24 11:41:51;;;;;;;11.30;6.15;;;22.80;99.90;;;;;;4980082;28;20053;-64
2023/07/24 11:44:25;;;;;;;8.95;6.15;;;22.70;99.90;;;;;;5014042;28;20116;-65
2023/07/24 11:47:00;;;;;;;7.93;5.78;;;22.60;99.90;;;;;;5021843;28;20046;-63
2023/07/24 11:49:27;;;;;;;8.88;6.30;;;22.70;99.90;;;;;;5013050;28;20107;-65
2023/07/24 11:52:02;;;;;;;9.15;5.93;;;22.80;99.90;;;;;;5033063;28;20410;-64
2023/07/24 11:54:29;;;;;;;8.73;5.70;;;22.90;99.90;;;;;;5015531;28;20057;-65
2023/07/24 11:56:55;;;;;;;9.05;6.47;;;23.00;99.90;;;;;;5033564;28;20049;-63
2023/07/24 11:59:24;;;;;;;11.52;6.70;;;23.20;99.90;;;;;;5034244;28;20057;-66
2023/07/24 12:01:51;;;;;;;8.20;6.80;;;23.30;99.90;;;;;;5035065;28;20060;-65
2023/07/24 12:04:18;;;;;;;8.82;6.45;;;23.50;99.90;;;;;;5015236;28;20378;-65
2023/07/24 12:06:44;;;;;;;10.50;7.38;;;23.60;99.90;;;;;;5032748;28;20493;-65
2023/07/24 12:09:13;;;;;;;8.68;6.82;;;23.70;99.90;;;;;;5015457;28;20061;-63
2023/07/24 12:11:43;;;;;;;9.05;6.63;;;23.60;99.90;;;;;;4998482;28;20061;-65
2023/07/24 12:14:10;;;;;;;10.82;6.55;;;23.60;99.90;;;;;;5032229;28;20049;-64
2023/07/24 12:16:37;;;;;;;9.23;7.25;;;23.80;99.90;;;;;;5015726;28;20057;-65
2023/07/24 12:19:06;;;;;;;10.82;7.22;;;23.90;99.90;;;;;;5032723;28;20501;-64
2023/07/24 12:21:35;;;;;;;10.00;6.25;;;24.00;99.90;;;;;;5032903;28;20041;-64
2023/07/24 12:24:01;;;;;;;8.55;6.63;;;24.00;99.90;;;;;;5035352;28;20052;-64
2023/07/24 12:26:29;;;;;;;12.35;6.85;;;24.00;99.90;;;;;;5035087;28;20136;-66
2023/07/24 12:28:55;;;;;;;11.98;7.00;;;23.80;99.90;;;;;;5033986;28;20115;-64
2023/07/24 12:31:21;;;;;;;8.00;5.60;;;23.90;99.90;;;;;;5014631;28;20052;-64
2023/07/24 12:33:49;;;;;;;8.88;6.00;;;24.00;99.90;;;;;;5014693;28;20060;-66
2023/07/24 12:36:15;;;;;;;10.23;6.82;;;23.90;99.90;;;;;;5042666;28;20080;-63
2023/07/24 12:38:42;;;;;;;9.63;6.93;;;23.90;99.90;;;;;;5040924;28;20041;-63
2023/07/24 12:41:08;;;;;;;10.15;6.55;;;23.80;99.90;;;;;;5031869;28;20046;-65
2023/07/24 12:43:35;;;;;;;10.75;6.70;;;23.70;99.90;;;;;;5032669;28;20054;-64